Sacramento, California
Traffic Map
Current Weather Conditions
Sacramento, California
Clear
Clear
54°
Feels Like: 54°
Wind Chill: 54° Ceiling: Unl
Heat Index: 54° Visibility: 9mi
Dew Point: 46° Wind: 6mph
Humidity: 75% Direction: 180° (S)
Pressure: 30.03in Gusts: 0mph
Raw Report DataKSAC 260153Z 18005KT 9SM CLR 12/08 A3003 RMK AO2 SLP168 T01220078
Traffic Incident Summary
Active as of:
Severity:
Category:
InformationThere was an issue retrieving the traffic information for this location. Please try a different location or try again shortly.
Advertisements
Track Severe Weather on mobile